sensor_id;sensor_type;location;lat;lon;timestamp;P1;durP1;ratioP1;P2;durP2;ratioP2
14052;SDS011;7101;51.600;7.310;2023-03-25T00:00:55;3.72;;;1.40;;
14052;SDS011;7101;51.600;7.310;2023-03-25T00:03:24;3.75;;;1.60;;
14052;SDS011;7101;51.600;7.310;2023-03-25T00:05:53;3.30;;;1.23;;
14052;SDS011;7101;51.600;7.310;2023-03-25T00:08:21;4.97;;;1.38;;
14052;SDS011;7101;51.600;7.310;2023-03-25T00:10:50;5.80;;;1.40;;
14052;SDS011;7101;51.600;7.310;2023-03-25T00:13:18;3.85;;;1.10;;
14052;SDS011;7101;51.600;7.310;2023-03-25T00:15:45;5.68;;;1.25;;
14052;SDS011;7101;51.600;7.310;2023-03-25T00:18:13;2.50;;;1.13;;
14052;SDS011;7101;51.600;7.310;2023-03-25T00:20:42;3.45;;;1.20;;
14052;SDS011;7101;51.600;7.310;2023-03-25T00:23:10;3.25;;;1.10;;
14052;SDS011;7101;51.600;7.310;2023-03-25T00:25:37;3.13;;;1.20;;
14052;SDS011;7101;51.600;7.310;2023-03-25T00:28:04;4.75;;;1.23;;
14052;SDS011;7101;51.600;7.310;2023-03-25T00:30:31;5.38;;;1.10;;
14052;SDS011;7101;51.600;7.310;2023-03-25T00:32:57;4.30;;;1.60;;
14052;SDS011;7101;51.600;7.310;2023-03-25T00:35:25;3.72;;;1.08;;
14052;SDS011;7101;51.600;7.310;2023-03-25T00:37:54;3.65;;;1.23;;
14052;SDS011;7101;51.600;7.310;2023-03-25T00:40:24;4.60;;;1.10;;
14052;SDS011;7101;51.600;7.310;2023-03-25T00:42:53;7.25;;;1.38;;
14052;SDS011;7101;51.600;7.310;2023-03-25T00:45:20;4.70;;;1.50;;
14052;SDS011;7101;51.600;7.310;2023-03-25T00:47:47;3.80;;;1.25;;
14052;SDS011;7101;51.600;7.310;2023-03-25T00:50:14;6.40;;;1.73;;
14052;SDS011;7101;51.600;7.310;2023-03-25T00:52:41;4.82;;;1.55;;
14052;SDS011;7101;51.600;7.310;2023-03-25T00:55:09;5.05;;;1.25;;
14052;SDS011;7101;51.600;7.310;2023-03-25T00:57:36;5.03;;;1.40;;
14052;SDS011;7101;51.600;7.310;2023-03-25T01:00:03;4.82;;;1.70;;
14052;SDS011;7101;51.600;7.310;2023-03-25T01:02:32;5.90;;;1.30;;
14052;SDS011;7101;51.600;7.310;2023-03-25T01:04:59;4.40;;;1.40;;
14052;SDS011;7101;51.600;7.310;2023-03-25T01:07:26;4.40;;;1.33;;
14052;SDS011;7101;51.600;7.310;2023-03-25T01:09:56;4.03;;;1.25;;
14052;SDS011;7101;51.600;7.310;2023-03-25T01:12:24;4.57;;;1.45;;
14052;SDS011;7101;51.600;7.310;2023-03-25T01:14:51;4.90;;;1.30;;
14052;SDS011;7101;51.600;7.310;2023-03-25T01:17:19;6.80;;;1.80;;
14052;SDS011;7101;51.600;7.310;2023-03-25T01:19:46;5.10;;;1.38;;
14052;SDS011;7101;51.600;7.310;2023-03-25T01:22:13;4.97;;;1.30;;
14052;SDS011;7101;51.600;7.310;2023-03-25T01:24:40;7.72;;;1.50;;
14052;SDS011;7101;51.600;7.310;2023-03-25T01:27:07;7.57;;;1.20;;
14052;SDS011;7101;51.600;7.310;2023-03-25T01:29:35;8.07;;;1.50;;
14052;SDS011;7101;51.600;7.310;2023-03-25T01:32:03;8.00;;;1.55;;
14052;SDS011;7101;51.600;7.310;2023-03-25T01:34:30;5.78;;;1.50;;
14052;SDS011;7101;51.600;7.310;2023-03-25T01:37:02;5.82;;;1.30;;
14052;SDS011;7101;51.600;7.310;2023-03-25T01:39:30;5.55;;;1.50;;
14052;SDS011;7101;51.600;7.310;2023-03-25T01:41:57;3.80;;;1.50;;
14052;SDS011;7101;51.600;7.310;2023-03-25T01:47:29;1.60;;;1.23;;
14052;SDS011;7101;51.600;7.310;2023-03-25T01:49:57;7.68;;;1.60;;
14052;SDS011;7101;51.600;7.310;2023-03-25T01:52:24;3.75;;;1.60;;
14052;SDS011;7101;51.600;7.310;2023-03-25T01:54:54;6.53;;;1.70;;
14052;SDS011;7101;51.600;7.310;2023-03-25T01:57:22;6.55;;;1.80;;
14052;SDS011;7101;51.600;7.310;2023-03-25T01:59:50;3.83;;;1.48;;
14052;SDS011;7101;51.600;7.310;2023-03-25T02:02:19;6.47;;;1.48;;
14052;SDS011;7101;51.600;7.310;2023-03-25T02:04:50;3.05;;;1.50;;
14052;SDS011;7101;51.600;7.310;2023-03-25T02:07:23;4.03;;;1.67;;
14052;SDS011;7101;51.600;7.310;2023-03-25T02:09:55;3.97;;;1.25;;
14052;SDS011;7101;51.600;7.310;2023-03-25T02:12:24;6.43;;;1.25;;
14052;SDS011;7101;51.600;7.310;2023-03-25T02:14:51;3.15;;;1.33;;
14052;SDS011;7101;51.600;7.310;2023-03-25T02:17:20;4.25;;;1.23;;
14052;SDS011;7101;51.600;7.310;2023-03-25T02:20:02;4.80;;;1.38;;
14052;SDS011;7101;51.600;7.310;2023-03-25T02:26:18;4.25;;;1.55;;
14052;SDS011;7101;51.600;7.310;2023-03-25T02:29:02;5.75;;;1.65;;
14052;SDS011;7101;51.600;7.310;2023-03-25T02:31:41;4.68;;;1.40;;
14052;SDS011;7101;51.600;7.310;2023-03-25T02:34:30;7.82;;;1.50;;
14052;SDS011;7101;51.600;7.310;2023-03-25T02:37:19;4.22;;;1.27;;
14052;SDS011;7101;51.600;7.310;2023-03-25T02:40:00;7.32;;;1.60;;
14052;SDS011;7101;51.600;7.310;2023-03-25T02:42:32;6.35;;;1.50;;
14052;SDS011;7101;51.600;7.310;2023-03-25T02:45:04;5.07;;;1.35;;
14052;SDS011;7101;51.600;7.310;2023-03-25T02:54:19;6.80;;;1.48;;
14052;SDS011;7101;51.600;7.310;2023-03-25T02:56:50;5.00;;;1.10;;
14052;SDS011;7101;51.600;7.310;2023-03-25T02:59:21;2.45;;;1.20;;
14052;SDS011;7101;51.600;7.310;2023-03-25T03:01:50;2.80;;;1.20;;
14052;SDS011;7101;51.600;7.310;2023-03-25T03:04:22;4.15;;;1.40;;
14052;SDS011;7101;51.600;7.310;2023-03-25T03:06:49;4.15;;;1.30;;
14052;SDS011;7101;51.600;7.310;2023-03-25T03:09:21;5.72;;;1.90;;
14052;SDS011;7101;51.600;7.310;2023-03-25T03:11:57;4.22;;;1.80;;
14052;SDS011;7101;51.600;7.310;2023-03-25T03:17:31;4.63;;;1.33;;
14052;SDS011;7101;51.600;7.310;2023-03-25T03:20:05;3.35;;;1.45;;
14052;SDS011;7101;51.600;7.310;2023-03-25T03:22:39;7.00;;;1.30;;
14052;SDS011;7101;51.600;7.310;2023-03-25T03:25:09;3.60;;;1.27;;
14052;SDS011;7101;51.600;7.310;2023-03-25T03:27:47;1.77;;;1.17;;
14052;SDS011;7101;51.600;7.310;2023-03-25T03:30:19;7.03;;;1.70;;
14052;SDS011;7101;51.600;7.310;2023-03-25T03:32:54;4.82;;;1.27;;
14052;SDS011;7101;51.600;7.310;2023-03-25T03:35:26;4.53;;;1.40;;
14052;SDS011;7101;51.600;7.310;2023-03-25T03:37:57;3.67;;;1.40;;
14052;SDS011;7101;51.600;7.310;2023-03-25T03:40:28;3.30;;;1.55;;
14052;SDS011;7101;51.600;7.310;2023-03-25T03:42:59;6.78;;;1.50;;
14052;SDS011;7101;51.600;7.310;2023-03-25T03:45:29;2.03;;;1.10;;
14052;SDS011;7101;51.600;7.310;2023-03-25T03:48:00;5.47;;;1.65;;
14052;SDS011;7101;51.600;7.310;2023-03-25T03:50:32;4.35;;;1.50;;
14052;SDS011;7101;51.600;7.310;2023-03-25T03:53:05;4.32;;;1.50;;
14052;SDS011;7101;51.600;7.310;2023-03-25T03:55:38;7.03;;;1.40;;
14052;SDS011;7101;51.600;7.310;2023-03-25T03:58:10;5.07;;;1.67;;
14052;SDS011;7101;51.600;7.310;2023-03-25T04:00:47;6.00;;;1.48;;
14052;SDS011;7101;51.600;7.310;2023-03-25T04:03:19;5.60;;;1.70;;
14052;SDS011;7101;51.600;7.310;2023-03-25T04:05:51;4.68;;;1.60;;
14052;SDS011;7101;51.600;7.310;2023-03-25T04:08:23;5.53;;;1.80;;
14052;SDS011;7101;51.600;7.310;2023-03-25T04:10:54;4.78;;;1.55;;
14052;SDS011;7101;51.600;7.310;2023-03-25T04:13:26;5.22;;;1.52;;
14052;SDS011;7101;51.600;7.310;2023-03-25T04:15:57;4.65;;;1.42;;
14052;SDS011;7101;51.600;7.310;2023-03-25T04:18:25;3.67;;;1.42;;
14052;SDS011;7101;51.600;7.310;2023-03-25T04:20:52;5.18;;;1.65;;
14052;SDS011;7101;51.600;7.310;2023-03-25T04:23:19;3.33;;;1.40;;
14052;SDS011;7101;51.600;7.310;2023-03-25T04:25:47;3.10;;;1.50;;
14052;SDS011;7101;51.600;7.310;2023-03-25T04:28:17;7.20;;;1.73;;
14052;SDS011;7101;51.600;7.310;2023-03-25T04:30:45;6.22;;;1.73;;
14052;SDS011;7101;51.600;7.310;2023-03-25T04:33:14;5.32;;;1.60;;
14052;SDS011;7101;51.600;7.310;2023-03-25T04:35:41;3.63;;;1.40;;
14052;SDS011;7101;51.600;7.310;2023-03-25T04:38:08;6.35;;;1.60;;
14052;SDS011;7101;51.600;7.310;2023-03-25T04:40:35;7.43;;;1.60;;
14052;SDS011;7101;51.600;7.310;2023-03-25T04:43:04;4.72;;;1.63;;
14052;SDS011;7101;51.600;7.310;2023-03-25T04:45:32;4.93;;;1.50;;
14052;SDS011;7101;51.600;7.310;2023-03-25T04:48:01;6.03;;;1.92;;
14052;SDS011;7101;51.600;7.310;2023-03-25T04:50:30;4.93;;;1.48;;
14052;SDS011;7101;51.600;7.310;2023-03-25T04:52:58;5.45;;;1.58;;
14052;SDS011;7101;51.600;7.310;2023-03-25T04:55:25;8.75;;;1.63;;
14052;SDS011;7101;51.600;7.310;2023-03-25T04:57:54;6.40;;;2.08;;
14052;SDS011;7101;51.600;7.310;2023-03-25T05:00:21;4.90;;;1.90;;
14052;SDS011;7101;51.600;7.310;2023-03-25T05:02:49;4.35;;;1.70;;
14052;SDS011;7101;51.600;7.310;2023-03-25T05:05:20;6.15;;;1.70;;
14052;SDS011;7101;51.600;7.310;2023-03-25T05:07:49;8.15;;;2.03;;
14052;SDS011;7101;51.600;7.310;2023-03-25T05:10:18;6.43;;;1.77;;
14052;SDS011;7101;51.600;7.310;2023-03-25T05:12:46;5.53;;;1.60;;
14052;SDS011;7101;51.600;7.310;2023-03-25T05:15:13;5.28;;;1.63;;
14052;SDS011;7101;51.600;7.310;2023-03-25T05:17:41;7.13;;;2.08;;
14052;SDS011;7101;51.600;7.310;2023-03-25T05:20:09;6.60;;;1.35;;
14052;SDS011;7101;51.600;7.310;2023-03-25T05:22:39;5.82;;;1.77;;
14052;SDS011;7101;51.600;7.310;2023-03-25T05:25:08;9.10;;;1.77;;
14052;SDS011;7101;51.600;7.310;2023-03-25T05:27:35;6.25;;;1.70;;
14052;SDS011;7101;51.600;7.310;2023-03-25T05:30:04;8.27;;;1.80;;
14052;SDS011;7101;51.600;7.310;2023-03-25T05:32:32;6.53;;;1.33;;
14052;SDS011;7101;51.600;7.310;2023-03-25T05:34:59;7.00;;;1.63;;
14052;SDS011;7101;51.600;7.310;2023-03-25T05:37:27;5.32;;;1.65;;
14052;SDS011;7101;51.600;7.310;2023-03-25T05:39:55;5.90;;;1.70;;
14052;SDS011;7101;51.600;7.310;2023-03-25T05:42:22;6.10;;;1.70;;
14052;SDS011;7101;51.600;7.310;2023-03-25T05:44:49;3.70;;;1.60;;
14052;SDS011;7101;51.600;7.310;2023-03-25T05:47:17;5.32;;;1.48;;
14052;SDS011;7101;51.600;7.310;2023-03-25T05:49:46;6.65;;;1.85;;
14052;SDS011;7101;51.600;7.310;2023-03-25T05:52:13;7.32;;;1.80;;
14052;SDS011;7101;51.600;7.310;2023-03-25T05:54:41;8.63;;;1.60;;
14052;SDS011;7101;51.600;7.310;2023-03-25T05:57:09;6.72;;;1.80;;
14052;SDS011;7101;51.600;7.310;2023-03-25T05:59:36;9.15;;;1.75;;
14052;SDS011;7101;51.600;7.310;2023-03-25T06:02:04;6.75;;;1.65;;
14052;SDS011;7101;51.600;7.310;2023-03-25T06:04:33;8.85;;;1.85;;
14052;SDS011;7101;51.600;7.310;2023-03-25T06:07:06;7.75;;;1.70;;
14052;SDS011;7101;51.600;7.310;2023-03-25T06:09:38;5.18;;;1.67;;
14052;SDS011;7101;51.600;7.310;2023-03-25T06:12:11;6.75;;;1.38;;
14052;SDS011;7101;51.600;7.310;2023-03-25T06:14:39;4.70;;;1.42;;
14052;SDS011;7101;51.600;7.310;2023-03-25T06:17:07;5.53;;;1.58;;
14052;SDS011;7101;51.600;7.310;2023-03-25T06:19:35;4.90;;;1.33;;
14052;SDS011;7101;51.600;7.310;2023-03-25T06:22:03;7.35;;;1.60;;
14052;SDS011;7101;51.600;7.310;2023-03-25T06:24:33;5.32;;;1.58;;
14052;SDS011;7101;51.600;7.310;2023-03-25T06:27:01;6.00;;;1.42;;
14052;SDS011;7101;51.600;7.310;2023-03-25T06:29:29;5.65;;;1.88;;
14052;SDS011;7101;51.600;7.310;2023-03-25T06:31:56;7.85;;;1.50;;
14052;SDS011;7101;51.600;7.310;2023-03-25T06:34:23;4.70;;;1.23;;
14052;SDS011;7101;51.600;7.310;2023-03-25T06:36:50;7.03;;;1.60;;
14052;SDS011;7101;51.600;7.310;2023-03-25T06:39:18;7.13;;;1.70;;
14052;SDS011;7101;51.600;7.310;2023-03-25T06:41:45;7.28;;;1.73;;
14052;SDS011;7101;51.600;7.310;2023-03-25T06:44:12;5.53;;;1.75;;
14052;SDS011;7101;51.600;7.310;2023-03-25T06:46:42;6.05;;;1.60;;
14052;SDS011;7101;51.600;7.310;2023-03-25T06:49:09;4.47;;;1.80;;
14052;SDS011;7101;51.600;7.310;2023-03-25T06:51:38;5.80;;;1.45;;
14052;SDS011;7101;51.600;7.310;2023-03-25T06:54:08;5.30;;;1.40;;
14052;SDS011;7101;51.600;7.310;2023-03-25T06:56:35;6.78;;;2.22;;
14052;SDS011;7101;51.600;7.310;2023-03-25T06:59:03;7.10;;;1.83;;
14052;SDS011;7101;51.600;7.310;2023-03-25T07:01:30;5.43;;;1.60;;
14052;SDS011;7101;51.600;7.310;2023-03-25T07:03:58;7.13;;;2.08;;
14052;SDS011;7101;51.600;7.310;2023-03-25T07:06:27;5.13;;;1.58;;
14052;SDS011;7101;51.600;7.310;2023-03-25T07:08:55;6.05;;;1.83;;
14052;SDS011;7101;51.600;7.310;2023-03-25T07:11:27;5.80;;;1.90;;
14052;SDS011;7101;51.600;7.310;2023-03-25T07:13:55;5.55;;;2.13;;
14052;SDS011;7101;51.600;7.310;2023-03-25T07:16:22;10.68;;;2.38;;
14052;SDS011;7101;51.600;7.310;2023-03-25T07:18:54;4.90;;;1.63;;
14052;SDS011;7101;51.600;7.310;2023-03-25T07:21:27;6.18;;;2.05;;
14052;SDS011;7101;51.600;7.310;2023-03-25T07:23:55;5.13;;;1.83;;
14052;SDS011;7101;51.600;7.310;2023-03-25T07:26:22;6.50;;;2.20;;
14052;SDS011;7101;51.600;7.310;2023-03-25T07:28:48;7.15;;;2.20;;
14052;SDS011;7101;51.600;7.310;2023-03-25T07:31:15;9.48;;;2.42;;
14052;SDS011;7101;51.600;7.310;2023-03-25T07:33:42;4.90;;;2.25;;
14052;SDS011;7101;51.600;7.310;2023-03-25T07:36:10;7.75;;;2.53;;
14052;SDS011;7101;51.600;7.310;2023-03-25T07:38:40;6.15;;;2.22;;
14052;SDS011;7101;51.600;7.310;2023-03-25T07:41:07;7.82;;;2.53;;
14052;SDS011;7101;51.600;7.310;2023-03-25T07:43:36;5.80;;;2.30;;
14052;SDS011;7101;51.600;7.310;2023-03-25T07:46:03;9.00;;;2.55;;
14052;SDS011;7101;51.600;7.310;2023-03-25T07:48:30;6.85;;;2.33;;
14052;SDS011;7101;51.600;7.310;2023-03-25T07:50:58;11.98;;;3.17;;
14052;SDS011;7101;51.600;7.310;2023-03-25T07:53:25;9.13;;;2.65;;
14052;SDS011;7101;51.600;7.310;2023-03-25T07:55:54;8.15;;;2.78;;
14052;SDS011;7101;51.600;7.310;2023-03-25T07:58:21;8.55;;;2.45;;
14052;SDS011;7101;51.600;7.310;2023-03-25T08:00:48;7.13;;;2.25;;
14052;SDS011;7101;51.600;7.310;2023-03-25T08:03:21;6.32;;;2.63;;
14052;SDS011;7101;51.600;7.310;2023-03-25T08:05:48;6.97;;;2.35;;
14052;SDS011;7101;51.600;7.310;2023-03-25T08:08:15;11.65;;;2.85;;
14052;SDS011;7101;51.600;7.310;2023-03-25T08:10:42;8.00;;;2.08;;
14052;SDS011;7101;51.600;7.310;2023-03-25T08:13:13;8.07;;;2.42;;
14052;SDS011;7101;51.600;7.310;2023-03-25T08:15:40;5.30;;;2.33;;
14052;SDS011;7101;51.600;7.310;2023-03-25T08:18:08;15.52;;;7.13;;
14052;SDS011;7101;51.600;7.310;2023-03-25T08:20:35;7.32;;;2.42;;
14052;SDS011;7101;51.600;7.310;2023-03-25T08:23:05;7.32;;;1.75;;
14052;SDS011;7101;51.600;7.310;2023-03-25T08:25:34;7.50;;;2.22;;
14052;SDS011;7101;51.600;7.310;2023-03-25T08:28:02;10.35;;;2.70;;
14052;SDS011;7101;51.600;7.310;2023-03-25T08:30:31;8.95;;;2.55;;
14052;SDS011;7101;51.600;7.310;2023-03-25T08:33:03;6.47;;;2.20;;
14052;SDS011;7101;51.600;7.310;2023-03-25T08:35:33;6.60;;;2.00;;
14052;SDS011;7101;51.600;7.310;2023-03-25T08:38:00;5.97;;;2.20;;
14052;SDS011;7101;51.600;7.310;2023-03-25T08:40:32;8.88;;;2.00;;
14052;SDS011;7101;51.600;7.310;2023-03-25T08:43:02;8.02;;;2.35;;
14052;SDS011;7101;51.600;7.310;2023-03-25T08:45:32;7.88;;;2.10;;
14052;SDS011;7101;51.600;7.310;2023-03-25T08:48:00;7.45;;;2.50;;
14052;SDS011;7101;51.600;7.310;2023-03-25T08:50:27;15.15;;;2.60;;
14052;SDS011;7101;51.600;7.310;2023-03-25T08:52:55;10.00;;;2.53;;
14052;SDS011;7101;51.600;7.310;2023-03-25T08:55:22;5.18;;;2.00;;
14052;SDS011;7101;51.600;7.310;2023-03-25T08:57:49;6.97;;;2.10;;
14052;SDS011;7101;51.600;7.310;2023-03-25T09:00:16;7.65;;;2.40;;
14052;SDS011;7101;51.600;7.310;2023-03-25T09:02:49;9.85;;;2.55;;
14052;SDS011;7101;51.600;7.310;2023-03-25T09:05:16;9.57;;;2.15;;
14052;SDS011;7101;51.600;7.310;2023-03-25T09:07:44;8.52;;;2.38;;
14052;SDS011;7101;51.600;7.310;2023-03-25T09:10:11;8.82;;;2.35;;
14052;SDS011;7101;51.600;7.310;2023-03-25T09:12:39;9.38;;;2.65;;
14052;SDS011;7101;51.600;7.310;2023-03-25T09:15:06;16.08;;;2.65;;
14052;SDS011;7101;51.600;7.310;2023-03-25T09:17:35;10.82;;;2.13;;
14052;SDS011;7101;51.600;7.310;2023-03-25T09:20:04;11.00;;;2.67;;
14052;SDS011;7101;51.600;7.310;2023-03-25T09:22:33;10.57;;;2.58;;
14052;SDS011;7101;51.600;7.310;2023-03-25T09:25:00;13.90;;;2.63;;
14052;SDS011;7101;51.600;7.310;2023-03-25T09:27:27;11.20;;;2.70;;
14052;SDS011;7101;51.600;7.310;2023-03-25T09:29:54;11.10;;;2.65;;
14052;SDS011;7101;51.600;7.310;2023-03-25T09:32:21;11.70;;;2.80;;
14052;SDS011;7101;51.600;7.310;2023-03-25T09:34:47;8.98;;;2.72;;
14052;SDS011;7101;51.600;7.310;2023-03-25T09:37:16;9.27;;;2.47;;
14052;SDS011;7101;51.600;7.310;2023-03-25T09:39:42;8.60;;;2.40;;
14052;SDS011;7101;51.600;7.310;2023-03-25T09:42:14;12.13;;;3.10;;
14052;SDS011;7101;51.600;7.310;2023-03-25T09:44:57;12.00;;;2.75;;
14052;SDS011;7101;51.600;7.310;2023-03-25T09:47:30;10.93;;;2.78;;
14052;SDS011;7101;51.600;7.310;2023-03-25T09:49:58;8.15;;;2.50;;
14052;SDS011;7101;51.600;7.310;2023-03-25T09:52:31;7.80;;;2.15;;
14052;SDS011;7101;51.600;7.310;2023-03-25T09:55:02;8.18;;;2.60;;
14052;SDS011;7101;51.600;7.310;2023-03-25T09:57:34;8.30;;;2.75;;
14052;SDS011;7101;51.600;7.310;2023-03-25T10:00:10;8.25;;;2.70;;
14052;SDS011;7101;51.600;7.310;2023-03-25T10:02:43;11.23;;;2.90;;
14052;SDS011;7101;51.600;7.310;2023-03-25T10:05:32;7.13;;;2.20;;
14052;SDS011;7101;51.600;7.310;2023-03-25T10:08:11;13.18;;;3.85;;
14052;SDS011;7101;51.600;7.310;2023-03-25T10:10:47;9.82;;;3.00;;
14052;SDS011;7101;51.600;7.310;2023-03-25T10:13:19;11.57;;;2.95;;
14052;SDS011;7101;51.600;7.310;2023-03-25T10:15:52;8.68;;;2.45;;
14052;SDS011;7101;51.600;7.310;2023-03-25T10:18:28;12.68;;;2.60;;
14052;SDS011;7101;51.600;7.310;2023-03-25T10:21:15;11.40;;;2.80;;
14052;SDS011;7101;51.600;7.310;2023-03-25T10:23:51;12.85;;;2.70;;
14052;SDS011;7101;51.600;7.310;2023-03-25T10:26:29;10.25;;;2.50;;
14052;SDS011;7101;51.600;7.310;2023-03-25T10:29:02;8.93;;;2.67;;
14052;SDS011;7101;51.600;7.310;2023-03-25T10:31:33;9.77;;;2.97;;
14052;SDS011;7101;51.600;7.310;2023-03-25T10:34:05;14.35;;;3.83;;
14052;SDS011;7101;51.600;7.310;2023-03-25T10:36:41;15.55;;;5.03;;
14052;SDS011;7101;51.600;7.310;2023-03-25T10:39:16;13.40;;;3.35;;
14052;SDS011;7101;51.600;7.310;2023-03-25T10:41:49;15.88;;;3.67;;
14052;SDS011;7101;51.600;7.310;2023-03-25T10:44:20;11.10;;;3.05;;
14052;SDS011;7101;51.600;7.310;2023-03-25T10:46:51;13.55;;;3.20;;
14052;SDS011;7101;51.600;7.310;2023-03-25T10:49:23;12.73;;;3.58;;
14052;SDS011;7101;51.600;7.310;2023-03-25T10:51:53;11.77;;;3.28;;
14052;SDS011;7101;51.600;7.310;2023-03-25T10:54:24;12.35;;;2.85;;
14052;SDS011;7101;51.600;7.310;2023-03-25T10:56:58;19.27;;;3.35;;
14052;SDS011;7101;51.600;7.310;2023-03-25T10:59:30;13.60;;;3.17;;
14052;SDS011;7101;51.600;7.310;2023-03-25T11:02:02;13.35;;;2.78;;
14052;SDS011;7101;51.600;7.310;2023-03-25T11:04:38;12.43;;;2.75;;
14052;SDS011;7101;51.600;7.310;2023-03-25T11:07:08;12.00;;;3.08;;
14052;SDS011;7101;51.600;7.310;2023-03-25T11:09:46;9.35;;;2.90;;
14052;SDS011;7101;51.600;7.310;2023-03-25T11:12:16;9.57;;;2.83;;
14052;SDS011;7101;51.600;7.310;2023-03-25T11:14:45;14.18;;;3.47;;
14052;SDS011;7101;51.600;7.310;2023-03-25T11:17:20;12.45;;;3.45;;
14052;SDS011;7101;51.600;7.310;2023-03-25T11:19:51;10.95;;;3.85;;
14052;SDS011;7101;51.600;7.310;2023-03-25T11:22:21;12.93;;;4.40;;
14052;SDS011;7101;51.600;7.310;2023-03-25T11:24:55;17.77;;;4.10;;
14052;SDS011;7101;51.600;7.310;2023-03-25T11:27:26;12.55;;;3.45;;
14052;SDS011;7101;51.600;7.310;2023-03-25T11:29:55;14.85;;;3.72;;
14052;SDS011;7101;51.600;7.310;2023-03-25T11:32:31;11.25;;;4.65;;
14052;SDS011;7101;51.600;7.310;2023-03-25T11:35:00;11.77;;;3.28;;
14052;SDS011;7101;51.600;7.310;2023-03-25T11:37:31;10.98;;;3.83;;
14052;SDS011;7101;51.600;7.310;2023-03-25T11:40:12;8.18;;;3.00;;
14052;SDS011;7101;51.600;7.310;2023-03-25T11:42:40;9.35;;;3.13;;
14052;SDS011;7101;51.600;7.310;2023-03-25T11:45:23;10.32;;;2.95;;
14052;SDS011;7101;51.600;7.310;2023-03-25T11:47:54;10.40;;;2.50;;
14052;SDS011;7101;51.600;7.310;2023-03-25T11:50:25;6.32;;;2.10;;
14052;SDS011;7101;51.600;7.310;2023-03-25T11:52:54;11.02;;;2.88;;
14052;SDS011;7101;51.600;7.310;2023-03-25T11:55:26;8.20;;;2.05;;
14052;SDS011;7101;51.600;7.310;2023-03-25T11:57:56;7.68;;;1.95;;
14052;SDS011;7101;51.600;7.310;2023-03-25T12:00:29;5.95;;;1.90;;
14052;SDS011;7101;51.600;7.310;2023-03-25T12:03:02;8.40;;;1.83;;
14052;SDS011;7101;51.600;7.310;2023-03-25T12:05:35;7.50;;;1.98;;
14052;SDS011;7101;51.600;7.310;2023-03-25T12:08:04;5.22;;;1.83;;
14052;SDS011;7101;51.600;7.310;2023-03-25T12:10:46;11.30;;;2.35;;
14052;SDS011;7101;51.600;7.310;2023-03-25T12:13:20;5.72;;;1.92;;
14052;SDS011;7101;51.600;7.310;2023-03-25T12:16:00;6.28;;;1.92;;
14052;SDS011;7101;51.600;7.310;2023-03-25T12:18:47;5.43;;;2.10;;
14052;SDS011;7101;51.600;7.310;2023-03-25T12:21:30;5.85;;;2.00;;
14052;SDS011;7101;51.600;7.310;2023-03-25T12:24:19;7.80;;;2.42;;
14052;SDS011;7101;51.600;7.310;2023-03-25T12:27:02;8.18;;;2.08;;
14052;SDS011;7101;51.600;7.310;2023-03-25T12:29:44;10.52;;;2.55;;
14052;SDS011;7101;51.600;7.310;2023-03-25T12:32:25;9.30;;;2.33;;
14052;SDS011;7101;51.600;7.310;2023-03-25T12:35:07;9.40;;;2.53;;
14052;SDS011;7101;51.600;7.310;2023-03-25T12:37:51;8.85;;;2.08;;
14052;SDS011;7101;51.600;7.310;2023-03-25T12:40:35;6.25;;;1.95;;
14052;SDS011;7101;51.600;7.310;2023-03-25T12:43:14;10.13;;;2.00;;
14052;SDS011;7101;51.600;7.310;2023-03-25T12:45:57;7.35;;;1.95;;
14052;SDS011;7101;51.600;7.310;2023-03-25T12:48:36;10.07;;;2.08;;
14052;SDS011;7101;51.600;7.310;2023-03-25T12:51:15;8.20;;;1.90;;
14052;SDS011;7101;51.600;7.310;2023-03-25T12:53:55;9.65;;;2.10;;
14052;SDS011;7101;51.600;7.310;2023-03-25T12:59:28;10.77;;;2.22;;
14052;SDS011;7101;51.600;7.310;2023-03-25T13:02:45;8.27;;;2.08;;
14052;SDS011;7101;51.600;7.310;2023-03-25T13:05:33;6.53;;;1.90;;
14052;SDS011;7101;51.600;7.310;2023-03-25T13:08:06;7.20;;;1.92;;
14052;SDS011;7101;51.600;7.310;2023-03-25T13:10:38;7.50;;;2.33;;
14052;SDS011;7101;51.600;7.310;2023-03-25T13:13:09;6.82;;;2.03;;
14052;SDS011;7101;51.600;7.310;2023-03-25T13:15:42;5.78;;;1.90;;
14052;SDS011;7101;51.600;7.310;2023-03-25T13:18:12;4.50;;;1.80;;
14052;SDS011;7101;51.600;7.310;2023-03-25T13:20:44;6.32;;;1.92;;
14052;SDS011;7101;51.600;7.310;2023-03-25T13:23:16;7.80;;;1.83;;
14052;SDS011;7101;51.600;7.310;2023-03-25T13:25:47;10.07;;;2.30;;
14052;SDS011;7101;51.600;7.310;2023-03-25T13:28:18;9.95;;;2.20;;
14052;SDS011;7101;51.600;7.310;2023-03-25T13:30:50;6.97;;;2.15;;
14052;SDS011;7101;51.600;7.310;2023-03-25T13:33:22;8.57;;;2.00;;
14052;SDS011;7101;51.600;7.310;2023-03-25T13:35:52;9.15;;;2.67;;
14052;SDS011;7101;51.600;7.310;2023-03-25T13:38:25;7.28;;;2.13;;
14052;SDS011;7101;51.600;7.310;2023-03-25T13:40:57;9.70;;;2.03;;
14052;SDS011;7101;51.600;7.310;2023-03-25T13:43:35;5.50;;;1.60;;
14052;SDS011;7101;51.600;7.310;2023-03-25T13:46:12;4.85;;;1.75;;
14052;SDS011;7101;51.600;7.310;2023-03-25T13:48:43;9.35;;;2.20;;
14052;SDS011;7101;51.600;7.310;2023-03-25T13:51:15;8.73;;;1.90;;
14052;SDS011;7101;51.600;7.310;2023-03-25T13:53:42;5.00;;;1.80;;
14052;SDS011;7101;51.600;7.310;2023-03-25T13:56:31;5.25;;;1.77;;
14052;SDS011;7101;51.600;7.310;2023-03-25T13:59:22;8.20;;;1.60;;
14052;SDS011;7101;51.600;7.310;2023-03-25T14:02:11;5.53;;;1.40;;
14052;SDS011;7101;51.600;7.310;2023-03-25T14:04:59;3.70;;;1.30;;
14052;SDS011;7101;51.600;7.310;2023-03-25T14:07:57;3.95;;;1.55;;
14052;SDS011;7101;51.600;7.310;2023-03-25T14:10:46;4.57;;;1.35;;
14052;SDS011;7101;51.600;7.310;2023-03-25T14:13:19;6.78;;;1.67;;
14052;SDS011;7101;51.600;7.310;2023-03-25T14:15:53;6.03;;;2.00;;
14052;SDS011;7101;51.600;7.310;2023-03-25T14:18:26;5.18;;;1.60;;
14052;SDS011;7101;51.600;7.310;2023-03-25T14:20:56;4.70;;;1.80;;
14052;SDS011;7101;51.600;7.310;2023-03-25T14:23:24;6.40;;;1.80;;
14052;SDS011;7101;51.600;7.310;2023-03-25T14:25:57;6.63;;;1.40;;
14052;SDS011;7101;51.600;7.310;2023-03-25T14:28:34;4.25;;;1.17;;
14052;SDS011;7101;51.600;7.310;2023-03-25T14:39:50;5.85;;;1.30;;
14052;SDS011;7101;51.600;7.310;2023-03-25T14:42:22;7.20;;;1.65;;
14052;SDS011;7101;51.600;7.310;2023-03-25T14:48:25;3.35;;;1.20;;
14052;SDS011;7101;51.600;7.310;2023-03-25T14:54:19;2.80;;;0.90;;
14052;SDS011;7101;51.600;7.310;2023-03-25T14:56:55;3.38;;;1.00;;
14052;SDS011;7101;51.600;7.310;2023-03-25T14:59:28;2.70;;;1.30;;
14052;SDS011;7101;51.600;7.310;2023-03-25T15:02:01;2.50;;;1.05;;
14052;SDS011;7101;51.600;7.310;2023-03-25T15:04:32;3.35;;;1.33;;
14052;SDS011;7101;51.600;7.310;2023-03-25T15:07:02;5.60;;;1.30;;
14052;SDS011;7101;51.600;7.310;2023-03-25T15:09:43;3.50;;;1.30;;
14052;SDS011;7101;51.600;7.310;2023-03-25T15:12:14;3.70;;;1.10;;
14052;SDS011;7101;51.600;7.310;2023-03-25T15:14:44;6.72;;;1.58;;
14052;SDS011;7101;51.600;7.310;2023-03-25T15:20:31;5.95;;;2.05;;
14052;SDS011;7101;51.600;7.310;2023-03-25T15:25:59;6.85;;;1.60;;
14052;SDS011;7101;51.600;7.310;2023-03-25T15:28:30;4.55;;;1.58;;
14052;SDS011;7101;51.600;7.310;2023-03-25T15:31:24;5.20;;;1.38;;
14052;SDS011;7101;51.600;7.310;2023-03-25T15:34:08;6.00;;;1.48;;
14052;SDS011;7101;51.600;7.310;2023-03-25T15:36:49;5.20;;;1.65;;
14052;SDS011;7101;51.600;7.310;2023-03-25T15:39:30;4.68;;;1.40;;
14052;SDS011;7101;51.600;7.310;2023-03-25T15:42:18;3.55;;;1.23;;
14052;SDS011;7101;51.600;7.310;2023-03-25T15:45:08;5.47;;;1.50;;
14052;SDS011;7101;51.600;7.310;2023-03-25T15:47:52;6.15;;;1.55;;
14052;SDS011;7101;51.600;7.310;2023-03-25T15:50:34;4.07;;;1.40;;
14052;SDS011;7101;51.600;7.310;2023-03-25T15:53:31;5.75;;;1.60;;
14052;SDS011;7101;51.600;7.310;2023-03-25T15:56:08;6.40;;;1.90;;
14052;SDS011;7101;51.600;7.310;2023-03-25T15:58:39;5.60;;;1.73;;
14052;SDS011;7101;51.600;7.310;2023-03-25T16:01:13;8.20;;;1.70;;
14052;SDS011;7101;51.600;7.310;2023-03-25T16:03:45;5.90;;;1.70;;
14052;SDS011;7101;51.600;7.310;2023-03-25T16:06:18;3.83;;;1.55;;
14052;SDS011;7101;51.600;7.310;2023-03-25T16:08:46;7.40;;;2.13;;